createdAt,value
2023-06-11T00:02:08.073Z,95.50
2023-06-11T00:04:36.859Z,95.50
2023-06-11T00:07:06.523Z,95.50
2023-06-11T00:09:34.078Z,95.50
2023-06-11T00:12:06.740Z,95.60
2023-06-11T00:14:34.080Z,95.40
2023-06-11T00:17:11.050Z,95.60
2023-06-11T00:20:04.550Z,95.40
2023-06-11T00:22:34.366Z,95.00
2023-06-11T00:25:01.668Z,95.40
2023-06-11T00:27:32.242Z,95.60
2023-06-11T00:30:04.499Z,95.50
2023-06-11T00:32:36.148Z,95.70
2023-06-11T00:35:10.450Z,95.60
2023-06-11T00:37:38.409Z,95.60
2023-06-11T00:40:09.652Z,95.70
2023-06-11T00:42:42.086Z,95.60
2023-06-11T00:45:12.587Z,95.60
2023-06-11T00:47:40.646Z,95.70
2023-06-11T00:50:11.401Z,95.70
2023-06-11T00:52:42.413Z,95.60
2023-06-11T00:55:13.059Z,95.60
2023-06-11T00:57:46.386Z,95.40
2023-06-11T01:00:16.186Z,95.60
2023-06-11T01:02:46.361Z,95.60
2023-06-11T01:05:18.813Z,95.50
2023-06-11T01:07:51.814Z,95.60
2023-06-11T01:10:19.873Z,95.80
2023-06-11T01:12:49.867Z,95.60
2023-06-11T01:15:17.228Z,95.60
2023-06-11T01:17:56.297Z,95.70
2023-06-11T01:20:36.198Z,95.30
2023-06-11T01:23:25.203Z,95.50
2023-06-11T01:26:06.815Z,95.10
2023-06-11T01:28:34.354Z,95.40
2023-06-11T01:31:06.610Z,95.20
2023-06-11T01:33:37.079Z,95.40
2023-06-11T01:36:07.006Z,95.70
2023-06-11T01:38:43.116Z,95.70
2023-06-11T01:41:12.892Z,95.40
2023-06-11T01:43:40.930Z,95.50
2023-06-11T01:46:08.814Z,95.70
2023-06-11T01:48:36.911Z,95.70
2023-06-11T01:51:04.320Z,95.80
2023-06-11T01:53:31.749Z,95.70
2023-06-11T01:56:04.347Z,95.80
2023-06-11T01:58:34.161Z,95.80
2023-06-11T02:01:04.221Z,95.80
2023-06-11T02:03:32.066Z,95.60
2023-06-11T02:06:01.920Z,95.80
2023-06-11T02:08:29.313Z,95.90
2023-06-11T02:11:01.320Z,95.90
2023-06-11T02:13:32.073Z,95.80
2023-06-11T02:16:00.235Z,95.90
2023-06-11T02:18:27.832Z,95.90
2023-06-11T02:20:57.700Z,95.80
2023-06-11T02:23:28.753Z,95.60
2023-06-11T02:25:57.351Z,95.50
2023-06-11T02:28:24.645Z,95.80
2023-06-11T02:30:51.963Z,95.70
2023-06-11T02:33:19.322Z,95.80
2023-06-11T02:35:46.731Z,95.40
2023-06-11T02:38:14.114Z,95.40
2023-06-11T02:40:43.840Z,95.30
2023-06-11T02:43:11.150Z,95.30
2023-06-11T02:45:38.568Z,95.30
2023-06-11T02:48:06.310Z,95.30
2023-06-11T02:50:33.721Z,95.40
2023-06-11T02:53:01.069Z,95.40
2023-06-11T02:55:28.473Z,95.50
2023-06-11T02:57:56.267Z,95.40
2023-06-11T03:00:23.667Z,95.40
2023-06-11T03:02:54.049Z,95.40
2023-06-11T03:05:24.845Z,95.60
2023-06-11T03:07:52.170Z,95.70
2023-06-11T03:10:21.950Z,95.80
2023-06-11T03:12:53.063Z,95.80
2023-06-11T03:15:20.653Z,95.80
2023-06-11T03:17:48.177Z,95.90
2023-06-11T03:20:18.858Z,96.00
2023-06-11T03:22:51.718Z,95.90
2023-06-11T03:25:19.397Z,96.00
2023-06-11T03:27:58.880Z,96.00
2023-06-11T03:30:26.250Z,96.10
2023-06-11T03:32:53.767Z,95.90
2023-06-11T03:35:25.884Z,95.70
2023-06-11T03:37:55.659Z,95.50
2023-06-11T03:40:23.010Z,95.70
2023-06-11T03:42:52.207Z,95.70
2023-06-11T03:45:19.661Z,95.60
2023-06-11T03:47:47.073Z,95.70
2023-06-11T03:50:14.495Z,95.70
2023-06-11T03:52:41.816Z,95.80
2023-06-11T03:55:09.768Z,95.60
2023-06-11T03:57:37.592Z,95.30
2023-06-11T04:00:05.597Z,95.40
2023-06-11T04:02:35.151Z,95.20
2023-06-11T04:05:05.466Z,95.10
2023-06-11T04:07:32.873Z,95.20
2023-06-11T04:10:00.211Z,95.10
2023-06-11T04:12:27.560Z,95.20
2023-06-11T04:14:54.960Z,95.30
2023-06-11T04:17:22.497Z,95.30
2023-06-11T04:19:52.585Z,95.20
2023-06-11T04:22:19.965Z,95.40
2023-06-11T04:24:52.282Z,95.30
2023-06-11T04:27:22.127Z,95.40
2023-06-11T04:29:54.132Z,95.30
2023-06-11T04:32:22.257Z,95.50
2023-06-11T04:34:49.959Z,95.40
2023-06-11T04:37:18.106Z,95.50
2023-06-11T04:39:48.245Z,95.50
2023-06-11T04:42:17.343Z,95.50
2023-06-11T04:44:47.829Z,95.60
2023-06-11T04:47:23.680Z,95.30
2023-06-11T04:49:54.205Z,95.40
2023-06-11T04:52:23.111Z,95.20
2023-06-11T04:54:50.494Z,95.30
2023-06-11T04:57:18.200Z,95.30
2023-06-11T04:59:46.473Z,95.30
2023-06-11T05:02:13.947Z,95.20
2023-06-11T05:04:41.594Z,95.30
2023-06-11T05:07:09.040Z,95.30
2023-06-11T05:09:36.736Z,95.50
2023-06-11T05:12:06.981Z,95.70
2023-06-11T05:14:34.328Z,95.60
2023-06-11T05:17:03.138Z,95.50
2023-06-11T05:19:31.639Z,95.50
2023-06-11T05:22:01.528Z,95.30
2023-06-11T05:24:30.776Z,95.40
2023-06-11T05:27:00.748Z,95.40
2023-06-11T05:29:28.211Z,94.80
2023-06-11T05:31:57.588Z,95.00
2023-06-11T05:34:27.433Z,94.80
2023-06-11T05:36:54.919Z,94.90
2023-06-11T05:39:22.317Z,94.80
2023-06-11T05:41:54.530Z,94.60
2023-06-11T05:44:21.923Z,94.40
2023-06-11T05:46:51.755Z,94.50
2023-06-11T05:49:19.300Z,94.20
2023-06-11T05:51:47.339Z,93.80
2023-06-11T05:54:14.652Z,94.10
2023-06-11T05:56:44.557Z,94.50
2023-06-11T05:59:14.545Z,94.30
2023-06-11T06:01:46.683Z,94.10
2023-06-11T06:04:17.141Z,94.90
2023-06-11T06:06:44.656Z,94.30
2023-06-11T06:09:12.427Z,93.60
2023-06-11T06:11:42.431Z,93.80
2023-06-11T06:14:11.955Z,94.20
2023-06-11T06:16:39.387Z,94.30
2023-06-11T06:19:09.720Z,94.00
2023-06-11T06:21:37.013Z,94.40
2023-06-11T06:24:04.802Z,93.80
2023-06-11T06:26:32.932Z,93.70
2023-06-11T06:29:03.288Z,93.90
2023-06-11T06:31:31.899Z,93.70
2023-06-11T06:33:59.275Z,93.70
2023-06-11T06:36:26.862Z,93.80
2023-06-11T06:38:54.365Z,92.60
2023-06-11T06:41:21.750Z,92.80
2023-06-11T06:43:50.841Z,92.30
2023-06-11T06:46:19.697Z,92.20
2023-06-11T06:48:47.183Z,92.50
2023-06-11T06:51:14.767Z,92.70
2023-06-11T06:53:42.163Z,91.60
2023-06-11T06:56:09.580Z,92.00
2023-06-11T06:58:39.565Z,91.90
2023-06-11T07:01:09.580Z,91.90
2023-06-11T07:03:37.053Z,91.60
2023-06-11T07:06:04.558Z,92.40
2023-06-11T07:08:31.954Z,92.80
2023-06-11T07:11:01.772Z,92.40
2023-06-11T07:13:29.170Z,91.20
2023-06-11T07:15:56.567Z,91.40
2023-06-11T07:18:35.051Z,91.60
2023-06-11T07:21:02.499Z,91.90
2023-06-11T07:23:32.234Z,91.20
2023-06-11T07:25:59.557Z,91.30
2023-06-11T07:28:26.955Z,91.70
2023-06-11T07:30:55.305Z,92.00
2023-06-11T07:33:24.963Z,92.20
2023-06-11T07:35:54.102Z,92.30
2023-06-11T07:38:22.942Z,92.20
2023-06-11T07:40:50.573Z,92.30
2023-06-11T07:43:20.272Z,91.70
2023-06-11T07:45:47.612Z,90.10
2023-06-11T07:48:14.989Z,90.20
2023-06-11T07:50:42.623Z,89.20
2023-06-11T07:53:10.279Z,87.20
2023-06-11T07:55:38.570Z,87.50
2023-06-11T07:58:06.087Z,88.60
2023-06-11T08:00:33.595Z,90.00
2023-06-11T08:03:01.033Z,90.20
2023-06-11T08:05:28.501Z,89.30
2023-06-11T08:07:55.951Z,89.10
2023-06-11T08:10:23.509Z,88.40
2023-06-11T08:12:53.306Z,89.30
2023-06-11T08:15:20.896Z,89.70
2023-06-11T08:17:48.444Z,87.70
2023-06-11T08:20:18.031Z,89.10
2023-06-11T08:22:45.638Z,88.70
2023-06-11T08:25:13.192Z,88.30
2023-06-11T08:27:40.670Z,88.90
2023-06-11T08:30:09.060Z,86.40
2023-06-11T08:32:36.596Z,85.90
2023-06-11T08:35:04.394Z,86.60
2023-06-11T08:37:31.807Z,85.40
2023-06-11T08:39:59.113Z,86.00
2023-06-11T08:42:26.517Z,87.90
2023-06-11T08:44:53.877Z,86.70
2023-06-11T08:47:24.268Z,87.10
2023-06-11T08:49:57.108Z,88.30
2023-06-11T08:52:27.315Z,89.70
2023-06-11T08:54:55.018Z,89.00
2023-06-11T08:57:23.042Z,89.70
2023-06-11T08:59:50.520Z,88.10
2023-06-11T09:02:19.191Z,87.00
2023-06-11T09:04:49.045Z,85.00
2023-06-11T09:07:25.031Z,87.60
2023-06-11T09:10:12.139Z,83.50
2023-06-11T09:12:39.832Z,84.60
2023-06-11T09:15:10.855Z,87.00
2023-06-11T09:17:42.907Z,85.60
2023-06-11T09:20:14.781Z,87.00
2023-06-11T09:22:49.048Z,86.20
2023-06-11T09:25:19.728Z,88.40
2023-06-11T09:27:49.181Z,87.90
2023-06-11T09:30:19.415Z,88.90
2023-06-11T09:32:52.865Z,88.80
2023-06-11T09:35:22.654Z,89.10
2023-06-11T09:37:54.275Z,88.50
2023-06-11T09:40:25.179Z,89.40
2023-06-11T09:42:52.758Z,90.30
2023-06-11T09:45:22.658Z,90.40
2023-06-11T09:47:52.554Z,90.20
2023-06-11T09:50:23.082Z,90.10
2023-06-11T09:52:54.551Z,86.00
2023-06-11T09:55:22.885Z,85.80
2023-06-11T09:57:52.130Z,89.40
2023-06-11T10:00:20.096Z,86.00
2023-06-11T10:02:49.823Z,83.80
2023-06-11T10:05:17.393Z,83.80
2023-06-11T10:07:48.041Z,83.10
2023-06-11T10:10:22.872Z,83.70
2023-06-11T10:12:56.677Z,83.50
2023-06-11T10:15:25.686Z,83.30
2023-06-11T10:17:54.916Z,83.30
2023-06-11T10:20:26.486Z,83.20
2023-06-11T10:23:08.704Z,83.00
2023-06-11T10:25:55.754Z,79.20
2023-06-11T10:28:39.294Z,78.10
2023-06-11T10:31:06.793Z,77.20
2023-06-11T10:33:45.306Z,80.40
2023-06-11T10:36:42.409Z,78.20
2023-06-11T10:39:10.567Z,80.10
2023-06-11T10:41:42.770Z,81.50
2023-06-11T10:44:15.499Z,82.00
2023-06-11T10:46:50.670Z,78.00
2023-06-11T10:49:21.797Z,80.10
2023-06-11T10:51:53.762Z,81.90
2023-06-11T10:54:31.495Z,80.50
2023-06-11T10:57:03.939Z,79.70
2023-06-11T10:59:33.297Z,81.60
2023-06-11T11:02:00.852Z,81.30
2023-06-11T11:04:30.787Z,79.70
2023-06-11T11:07:10.263Z,78.50
2023-06-11T11:09:38.089Z,77.00
2023-06-11T11:12:06.789Z,76.80
2023-06-11T11:14:35.016Z,77.80
2023-06-11T11:17:03.004Z,79.10
2023-06-11T11:19:34.798Z,79.30
2023-06-11T11:22:02.213Z,77.40
2023-06-11T11:24:34.115Z,76.80
2023-06-11T11:27:01.972Z,73.50
2023-06-11T11:29:29.612Z,76.20
2023-06-11T11:31:57.957Z,76.50
2023-06-11T11:34:27.631Z,72.40
2023-06-11T11:36:58.487Z,74.20
2023-06-11T11:39:27.993Z,72.30
2023-06-11T11:41:55.580Z,71.30
2023-06-11T11:44:25.636Z,69.70
2023-06-11T11:46:57.503Z,70.70
2023-06-11T11:49:37.320Z,69.40
2023-06-11T11:52:07.683Z,67.70
2023-06-11T11:54:42.046Z,68.10
2023-06-11T11:57:09.434Z,70.10
2023-06-11T11:59:41.193Z,69.00
2023-06-11T12:02:09.399Z,66.50
2023-06-11T12:04:46.499Z,69.40
2023-06-11T12:07:20.296Z,69.10
2023-06-11T12:09:48.001Z,69.40
2023-06-11T12:12:15.419Z,69.60
2023-06-11T12:14:42.825Z,68.60
2023-06-11T12:17:12.222Z,66.30
2023-06-11T12:19:39.853Z,66.80
2023-06-11T12:22:09.692Z,66.60
2023-06-11T12:24:39.713Z,65.40
2023-06-11T12:27:12.674Z,64.00
2023-06-11T12:29:40.586Z,65.90
2023-06-11T12:32:16.180Z,62.60
2023-06-11T12:34:43.635Z,59.40
2023-06-11T12:37:11.480Z,58.40
2023-06-11T12:39:38.996Z,59.70
2023-06-11T12:42:07.592Z,59.50
2023-06-11T12:44:35.100Z,59.60
2023-06-11T12:47:02.635Z,58.30
2023-06-11T12:49:32.657Z,59.60
2023-06-11T12:52:00.054Z,59.10
2023-06-11T12:54:27.400Z,61.20
2023-06-11T12:56:54.873Z,62.70
2023-06-11T12:59:23.717Z,61.80
2023-06-11T13:01:51.739Z,62.00
2023-06-11T13:04:19.268Z,60.90
2023-06-11T13:06:49.140Z,58.10
2023-06-11T13:09:16.739Z,55.60
2023-06-11T13:11:49.533Z,59.60
2023-06-11T13:14:19.006Z,57.00
2023-06-11T13:16:46.863Z,58.50
2023-06-11T13:19:14.479Z,57.20
2023-06-11T13:21:42.034Z,56.30
2023-06-11T13:24:09.500Z,55.10
2023-06-11T13:26:36.928Z,51.90
2023-06-11T13:29:04.329Z,53.50
2023-06-11T13:31:34.384Z,54.90
2023-06-11T13:34:02.529Z,51.50
2023-06-11T13:36:30.644Z,52.90
2023-06-11T13:38:58.431Z,53.50
2023-06-11T13:41:26.788Z,52.60
2023-06-11T13:43:55.385Z,52.90
2023-06-11T13:46:23.102Z,50.70
2023-06-11T13:48:50.469Z,51.50
2023-06-11T13:51:18.206Z,49.30
2023-06-11T13:53:48.072Z,49.30
2023-06-11T13:56:15.790Z,48.40
2023-06-11T13:58:43.275Z,50.30
2023-06-11T14:01:10.722Z,50.40
2023-06-11T14:03:38.504Z,51.00
2023-06-11T14:06:06.157Z,50.90
2023-06-11T14:08:33.558Z,52.00
2023-06-11T14:11:01.093Z,52.40
2023-06-11T14:13:30.874Z,53.90
2023-06-11T14:15:59.617Z,55.70
2023-06-11T14:18:27.016Z,55.80
2023-06-11T14:20:58.490Z,56.90
2023-06-11T14:23:26.293Z,58.00
2023-06-11T14:25:56.313Z,59.10
2023-06-11T14:28:23.782Z,59.90
2023-06-11T14:30:53.806Z,60.40
2023-06-11T14:33:21.687Z,60.20
2023-06-11T14:35:51.752Z,60.90
2023-06-11T14:38:19.904Z,59.80
2023-06-11T14:40:47.676Z,62.30
2023-06-11T14:43:17.230Z,62.80
2023-06-11T14:45:49.504Z,63.50
2023-06-11T14:48:19.098Z,63.70
2023-06-11T14:50:49.010Z,63.60
2023-06-11T14:53:16.525Z,64.10
2023-06-11T14:55:44.430Z,67.00
2023-06-11T14:58:13.936Z,66.40
2023-06-11T15:00:43.657Z,67.50
2023-06-11T15:03:13.624Z,67.70
2023-06-11T15:05:43.396Z,66.50
2023-06-11T15:08:11.031Z,64.80
2023-06-11T15:10:40.454Z,64.90
2023-06-11T15:13:10.416Z,66.70
2023-06-11T15:15:39.137Z,66.10
2023-06-11T15:18:08.679Z,67.20
2023-06-11T15:20:36.217Z,67.60
2023-06-11T15:23:03.854Z,67.80
2023-06-11T15:25:31.161Z,67.00
2023-06-11T15:27:58.619Z,66.90
2023-06-11T15:30:27.426Z,66.20
2023-06-11T15:32:57.481Z,66.40
2023-06-11T15:35:26.819Z,65.20
2023-06-11T15:37:54.196Z,64.80
2023-06-11T15:40:23.962Z,65.50
2023-06-11T15:42:53.408Z,67.40
2023-06-11T15:45:21.029Z,68.50
2023-06-11T15:47:49.649Z,68.10
2023-06-11T15:50:17.228Z,66.70
2023-06-11T15:52:45.213Z,68.50
2023-06-11T15:55:13.387Z,69.20
2023-06-11T15:57:41.135Z,67.60
2023-06-11T16:00:09.149Z,66.20
2023-06-11T16:02:38.944Z,66.10
2023-06-11T16:05:06.658Z,65.20
2023-06-11T16:07:34.272Z,66.80
2023-06-11T16:10:04.189Z,66.70
2023-06-11T16:12:31.626Z,68.00
2023-06-11T16:15:01.455Z,68.30
2023-06-11T16:17:28.951Z,66.50
2023-06-11T16:19:57.479Z,67.60
2023-06-11T16:22:27.338Z,68.70
2023-06-11T16:24:54.729Z,67.40
2023-06-11T16:27:24.344Z,67.80
2023-06-11T16:29:51.792Z,68.00
2023-06-11T16:32:19.142Z,66.30
2023-06-11T16:34:51.087Z,66.00
2023-06-11T16:37:21.033Z,66.80
2023-06-11T16:39:50.695Z,69.20
2023-06-11T16:42:18.058Z,67.90
2023-06-11T16:44:48.341Z,69.20
2023-06-11T16:47:15.857Z,69.40
2023-06-11T16:49:43.276Z,69.20
2023-06-11T16:52:17.252Z,68.90
2023-06-11T16:54:44.630Z,67.90
2023-06-11T16:57:12.560Z,70.30
2023-06-11T16:59:42.103Z,70.30
2023-06-11T17:02:09.484Z,71.10
2023-06-11T17:04:37.062Z,69.60
2023-06-11T17:07:10.376Z,69.90
2023-06-11T17:09:40.089Z,70.60
2023-06-11T17:12:08.088Z,71.90
2023-06-11T17:14:35.502Z,71.10
2023-06-11T17:17:02.942Z,72.50
2023-06-11T17:19:30.664Z,72.50
2023-06-11T17:22:00.725Z,70.70
2023-06-11T17:24:28.175Z,69.10
2023-06-11T17:26:57.980Z,70.10
2023-06-11T17:29:30.289Z,69.60
2023-06-11T17:31:59.797Z,70.60
2023-06-11T17:34:27.184Z,70.90
2023-06-11T17:36:54.511Z,70.50
2023-06-11T17:39:21.814Z,71.40
2023-06-11T17:41:49.311Z,72.00
2023-06-11T17:44:18.491Z,73.00
2023-06-11T17:46:48.500Z,72.00
2023-06-11T17:49:15.916Z,71.80
2023-06-11T17:51:43.819Z,72.50
2023-06-11T17:54:12.654Z,72.70
2023-06-11T17:56:41.395Z,73.70
2023-06-11T17:59:08.717Z,73.50
2023-06-11T18:01:37.865Z,72.90
2023-06-11T18:04:05.811Z,74.20
2023-06-11T18:06:34.347Z,73.40
2023-06-11T18:09:02.208Z,73.50
2023-06-11T18:11:29.874Z,73.80
2023-06-11T18:14:00.724Z,74.50
2023-06-11T18:16:28.734Z,74.30
2023-06-11T18:18:56.695Z,75.10
2023-06-11T18:21:24.334Z,74.40
2023-06-11T18:23:52.276Z,73.60
2023-06-11T18:26:22.971Z,73.50
2023-06-11T18:28:50.586Z,73.30
2023-06-11T18:31:20.405Z,73.30
2023-06-11T18:33:48.831Z,73.40
2023-06-11T18:36:16.706Z,73.60
2023-06-11T18:38:46.345Z,74.30
2023-06-11T18:41:15.761Z,74.10
2023-06-11T18:43:43.316Z,74.20
2023-06-11T18:46:10.921Z,74.90
2023-06-11T18:48:38.548Z,75.40
2023-06-11T18:51:06.171Z,75.50
2023-06-11T18:53:33.550Z,75.70
2023-06-11T18:56:05.625Z,76.10
2023-06-11T18:58:34.024Z,74.10
2023-06-11T19:01:01.440Z,75.90
2023-06-11T19:03:29.074Z,76.20
2023-06-11T19:05:56.659Z,75.40
2023-06-11T19:08:24.122Z,76.00
2023-06-11T19:10:51.500Z,76.10
2023-06-11T19:13:19.124Z,76.40
2023-06-11T19:15:47.151Z,77.90
2023-06-11T19:18:15.780Z,77.90
2023-06-11T19:20:43.809Z,77.60
2023-06-11T19:23:14.476Z,76.30
2023-06-11T19:25:42.693Z,75.60
2023-06-11T19:28:10.157Z,76.40
2023-06-11T19:30:37.782Z,77.10
2023-06-11T19:33:05.550Z,77.00
2023-06-11T19:35:34.391Z,77.40
2023-06-11T19:38:04.079Z,77.60
2023-06-11T19:40:31.683Z,78.30
2023-06-11T19:43:01.661Z,77.90
2023-06-11T19:45:29.152Z,77.40
2023-06-11T19:47:56.764Z,77.50
2023-06-11T19:50:27.290Z,77.50
2023-06-11T19:52:54.974Z,78.20
2023-06-11T19:55:24.311Z,78.20
2023-06-11T19:57:51.891Z,78.10
2023-06-11T20:00:20.640Z,77.90
2023-06-11T20:02:49.059Z,77.90
2023-06-11T20:05:18.908Z,78.30
2023-06-11T20:07:46.919Z,78.80
2023-06-11T20:10:14.930Z,78.50
2023-06-11T20:12:44.799Z,78.70
2023-06-11T20:15:12.561Z,78.60
2023-06-11T20:17:42.307Z,79.40
2023-06-11T20:20:10.363Z,79.20
2023-06-11T20:22:38.011Z,79.40
2023-06-11T20:25:05.787Z,80.50
2023-06-11T20:27:33.174Z,80.90
2023-06-11T20:30:00.712Z,81.30
2023-06-11T20:32:30.925Z,81.10
2023-06-11T20:35:00.965Z,80.40
2023-06-11T20:37:28.469Z,81.40
2023-06-11T20:39:55.783Z,81.30
2023-06-11T20:42:23.130Z,81.50
2023-06-11T20:44:52.891Z,81.20
2023-06-11T20:47:20.391Z,81.30
2023-06-11T20:49:48.964Z,81.30
2023-06-11T20:52:16.308Z,81.40
2023-06-11T20:54:43.658Z,81.50
2023-06-11T20:57:11.341Z,81.70
2023-06-11T20:59:41.565Z,81.80
2023-06-11T21:02:13.524Z,81.90
2023-06-11T21:04:41.063Z,82.40
2023-06-11T21:07:08.559Z,83.20
2023-06-11T21:09:35.902Z,82.50
2023-06-11T21:12:06.311Z,83.20
2023-06-11T21:14:35.965Z,82.70
2023-06-11T21:17:05.876Z,83.00
2023-06-11T21:19:35.576Z,83.50
2023-06-11T21:22:03.068Z,83.40
2023-06-11T21:24:32.802Z,83.80
2023-06-11T21:27:00.189Z,84.00
2023-06-11T21:29:29.860Z,84.10
2023-06-11T21:31:57.252Z,84.20
2023-06-11T21:34:24.615Z,84.40
2023-06-11T21:36:52.057Z,85.00
2023-06-11T21:39:19.493Z,85.10
2023-06-11T21:41:46.902Z,85.40
2023-06-11T21:44:15.186Z,85.80
2023-06-11T21:46:42.776Z,86.20
2023-06-11T21:49:10.268Z,85.80
2023-06-11T21:51:37.778Z,86.30
2023-06-11T21:54:05.888Z,85.80
2023-06-11T21:56:33.252Z,86.30
2023-06-11T21:59:00.647Z,85.90
2023-06-11T22:01:27.977Z,86.50
2023-06-11T22:03:55.425Z,86.10
2023-06-11T22:06:25.231Z,86.30
2023-06-11T22:08:55.569Z,86.90
2023-06-11T22:11:24.999Z,86.50
2023-06-11T22:13:52.292Z,86.90
2023-06-11T22:16:24.716Z,86.90
2023-06-11T22:18:53.230Z,86.80
2023-06-11T22:21:22.831Z,86.90
2023-06-11T22:23:52.081Z,87.10
2023-06-11T22:26:22.362Z,87.90
2023-06-11T22:28:51.263Z,88.40
2023-06-11T22:31:18.749Z,88.00
2023-06-11T22:33:46.169Z,87.90
2023-06-11T22:36:13.567Z,87.70
2023-06-11T22:38:41.236Z,88.50
2023-06-11T22:41:10.284Z,88.80
2023-06-11T22:43:37.742Z,88.70
2023-06-11T22:46:05.107Z,88.50
2023-06-11T22:48:32.478Z,88.20
2023-06-11T22:50:59.821Z,88.70
2023-06-11T22:53:29.152Z,88.90
2023-06-11T22:55:57.385Z,88.30
2023-06-11T22:58:24.701Z,88.50
2023-06-11T23:00:56.182Z,88.60
2023-06-11T23:03:23.744Z,89.30
2023-06-11T23:05:51.177Z,89.20
2023-06-11T23:08:18.548Z,89.60
2023-06-11T23:10:45.969Z,90.00
2023-06-11T23:13:15.733Z,90.00
2023-06-11T23:15:43.168Z,89.10
2023-06-11T23:18:13.013Z,90.00
2023-06-11T23:20:47.793Z,89.90
2023-06-11T23:23:16.705Z,89.30
2023-06-11T23:25:45.581Z,90.00
2023-06-11T23:28:16.046Z,90.20
2023-06-11T23:30:45.495Z,90.00
2023-06-11T23:33:15.260Z,90.20
2023-06-11T23:35:43.234Z,90.00
2023-06-11T23:38:11.167Z,90.00
2023-06-11T23:40:41.346Z,90.30
2023-06-11T23:43:08.636Z,90.30
2023-06-11T23:45:35.977Z,90.40
2023-06-11T23:48:03.583Z,90.10
2023-06-11T23:50:31.038Z,90.20
2023-06-11T23:53:00.962Z,90.40
2023-06-11T23:55:28.379Z,90.50
2023-06-11T23:58:24.037Z,90.30
